sensor_id;sensor_type;location;lat;lon;timestamp;temperature;humidity
81947;DHT22;71447;51.910;8.374;2023-07-13T00:00:44;18.10;62.80
81947;DHT22;71447;51.910;8.374;2023-07-13T00:03:11;18.10;62.90
81947;DHT22;71447;51.910;8.374;2023-07-13T00:05:38;18.00;62.90
81947;DHT22;71447;51.910;8.374;2023-07-13T00:08:06;18.00;62.90
81947;DHT22;71447;51.910;8.374;2023-07-13T00:10:34;18.00;63.10
81947;DHT22;71447;51.910;8.374;2023-07-13T00:13:04;18.00;63.30
81947;DHT22;71447;51.910;8.374;2023-07-13T00:15:31;17.90;63.30
81947;DHT22;71447;51.910;8.374;2023-07-13T00:17:58;17.90;63.40
81947;DHT22;71447;51.910;8.374;2023-07-13T00:20:26;17.90;63.40
81947;DHT22;71447;51.910;8.374;2023-07-13T00:22:53;17.80;63.60
81947;DHT22;71447;51.910;8.374;2023-07-13T00:25:21;17.80;63.70
81947;DHT22;71447;51.910;8.374;2023-07-13T00:27:49;17.80;63.80
81947;DHT22;71447;51.910;8.374;2023-07-13T00:30:16;17.70;63.90
81947;DHT22;71447;51.910;8.374;2023-07-13T00:32:43;17.70;64.10
81947;DHT22;71447;51.910;8.374;2023-07-13T00:35:10;17.70;64.10
81947;DHT22;71447;51.910;8.374;2023-07-13T00:37:37;17.70;64.30
81947;DHT22;71447;51.910;8.374;2023-07-13T00:40:04;17.70;64.40
81947;DHT22;71447;51.910;8.374;2023-07-13T00:42:32;17.60;64.40
81947;DHT22;71447;51.910;8.374;2023-07-13T00:45:00;17.60;64.50
81947;DHT22;71447;51.910;8.374;2023-07-13T00:47:27;17.60;64.60
81947;DHT22;71447;51.910;8.374;2023-07-13T00:49:54;17.60;64.60
81947;DHT22;71447;51.910;8.374;2023-07-13T00:52:20;17.60;64.60
81947;DHT22;71447;51.910;8.374;2023-07-13T00:54:47;17.50;64.80
81947;DHT22;71447;51.910;8.374;2023-07-13T00:57:15;17.50;64.80
81947;DHT22;71447;51.910;8.374;2023-07-13T00:59:48;17.50;65.00
81947;DHT22;71447;51.910;8.374;2023-07-13T01:02:15;17.50;65.00
81947;DHT22;71447;51.910;8.374;2023-07-13T01:04:42;17.60;65.00
81947;DHT22;71447;51.910;8.374;2023-07-13T01:07:09;17.60;65.10
81947;DHT22;71447;51.910;8.374;2023-07-13T01:09:37;17.50;65.10
81947;DHT22;71447;51.910;8.374;2023-07-13T01:12:04;17.50;65.20
81947;DHT22;71447;51.910;8.374;2023-07-13T01:14:30;17.50;65.10
81947;DHT22;71447;51.910;8.374;2023-07-13T01:16:59;17.60;65.30
81947;DHT22;71447;51.910;8.374;2023-07-13T01:19:28;17.60;65.10
81947;DHT22;71447;51.910;8.374;2023-07-13T01:22:02;17.60;65.20
81947;DHT22;71447;51.910;8.374;2023-07-13T01:24:29;17.60;65.20
81947;DHT22;71447;51.910;8.374;2023-07-13T01:26:56;17.60;65.10
81947;DHT22;71447;51.910;8.374;2023-07-13T01:29:23;17.60;65.10
81947;DHT22;71447;51.910;8.374;2023-07-13T01:31:49;17.70;65.30
81947;DHT22;71447;51.910;8.374;2023-07-13T01:34:16;17.60;65.30
81947;DHT22;71447;51.910;8.374;2023-07-13T01:36:43;17.70;65.80
81947;DHT22;71447;51.910;8.374;2023-07-13T01:39:11;17.70;66.20
81947;DHT22;71447;51.910;8.374;2023-07-13T01:41:37;17.70;66.00
81947;DHT22;71447;51.910;8.374;2023-07-13T01:44:04;17.70;66.00
81947;DHT22;71447;51.910;8.374;2023-07-13T01:46:31;17.70;66.10
81947;DHT22;71447;51.910;8.374;2023-07-13T01:48:57;17.70;66.20
81947;DHT22;71447;51.910;8.374;2023-07-13T01:51:24;17.70;66.30
81947;DHT22;71447;51.910;8.374;2023-07-13T01:53:51;17.70;66.40
81947;DHT22;71447;51.910;8.374;2023-07-13T01:56:19;17.70;66.40
81947;DHT22;71447;51.910;8.374;2023-07-13T01:58:46;17.60;66.20
81947;DHT22;71447;51.910;8.374;2023-07-13T02:01:13;17.60;66.20
81947;DHT22;71447;51.910;8.374;2023-07-13T02:03:39;17.60;66.30
81947;DHT22;71447;51.910;8.374;2023-07-13T02:06:06;17.70;66.40
81947;DHT22;71447;51.910;8.374;2023-07-13T02:08:33;17.60;66.40
81947;DHT22;71447;51.910;8.374;2023-07-13T02:10:59;17.60;66.60
81947;DHT22;71447;51.910;8.374;2023-07-13T02:13:28;17.60;66.70
81947;DHT22;71447;51.910;8.374;2023-07-13T02:15:54;17.50;66.60
81947;DHT22;71447;51.910;8.374;2023-07-13T02:18:21;17.50;66.70
81947;DHT22;71447;51.910;8.374;2023-07-13T02:20:48;17.50;66.90
81947;DHT22;71447;51.910;8.374;2023-07-13T02:23:14;17.40;67.00
81947;DHT22;71447;51.910;8.374;2023-07-13T02:25:41;17.40;67.20
81947;DHT22;71447;51.910;8.374;2023-07-13T02:28:08;17.40;67.30
81947;DHT22;71447;51.910;8.374;2023-07-13T02:30:36;17.40;67.50
81947;DHT22;71447;51.910;8.374;2023-07-13T02:33:03;17.30;67.60
81947;DHT22;71447;51.910;8.374;2023-07-13T02:35:30;17.30;67.90
81947;DHT22;71447;51.910;8.374;2023-07-13T02:37:57;17.20;68.10
81947;DHT22;71447;51.910;8.374;2023-07-13T02:40:24;17.10;68.30
81947;DHT22;71447;51.910;8.374;2023-07-13T02:42:51;17.10;68.40
81947;DHT22;71447;51.910;8.374;2023-07-13T02:45:17;17.00;68.50
81947;DHT22;71447;51.910;8.374;2023-07-13T02:47:45;17.00;68.60
81947;DHT22;71447;51.910;8.374;2023-07-13T02:50:12;17.00;68.80
81947;DHT22;71447;51.910;8.374;2023-07-13T02:52:39;17.00;68.80
81947;DHT22;71447;51.910;8.374;2023-07-13T02:55:06;17.00;68.90
81947;DHT22;71447;51.910;8.374;2023-07-13T02:57:32;16.90;69.10
81947;DHT22;71447;51.910;8.374;2023-07-13T02:59:59;16.90;69.30
81947;DHT22;71447;51.910;8.374;2023-07-13T03:02:26;16.90;69.50
81947;DHT22;71447;51.910;8.374;2023-07-13T03:04:55;16.90;70.20
81947;DHT22;71447;51.910;8.374;2023-07-13T03:07:21;16.80;70.00
81947;DHT22;71447;51.910;8.374;2023-07-13T03:09:48;16.80;70.40
81947;DHT22;71447;51.910;8.374;2023-07-13T03:12:15;16.80;70.60
81947;DHT22;71447;51.910;8.374;2023-07-13T03:14:41;16.70;70.80
81947;DHT22;71447;51.910;8.374;2023-07-13T03:17:08;16.70;70.80
81947;DHT22;71447;51.910;8.374;2023-07-13T03:19:35;16.70;70.90
81947;DHT22;71447;51.910;8.374;2023-07-13T03:22:03;16.60;71.10
81947;DHT22;71447;51.910;8.374;2023-07-13T03:24:30;16.50;71.20
81947;DHT22;71447;51.910;8.374;2023-07-13T03:26:58;16.50;71.30
81947;DHT22;71447;51.910;8.374;2023-07-13T03:29:25;16.50;71.10
81947;DHT22;71447;51.910;8.374;2023-07-13T03:31:51;16.50;71.00
81947;DHT22;71447;51.910;8.374;2023-07-13T03:34:18;16.50;70.80
81947;DHT22;71447;51.910;8.374;2023-07-13T03:36:45;16.30;70.60
81947;DHT22;71447;51.910;8.374;2023-07-13T03:39:13;16.30;70.60
81947;DHT22;71447;51.910;8.374;2023-07-13T03:41:40;16.30;70.40
81947;DHT22;71447;51.910;8.374;2023-07-13T03:44:06;16.20;70.10
81947;DHT22;71447;51.910;8.374;2023-07-13T03:46:33;16.20;69.80
81947;DHT22;71447;51.910;8.374;2023-07-13T03:49:00;16.20;69.60
81947;DHT22;71447;51.910;8.374;2023-07-13T03:51:27;16.10;69.60
81947;DHT22;71447;51.910;8.374;2023-07-13T03:53:54;16.10;69.60
81947;DHT22;71447;51.910;8.374;2023-07-13T03:56:22;16.10;69.20
81947;DHT22;71447;51.910;8.374;2023-07-13T03:58:49;16.00;68.80
81947;DHT22;71447;51.910;8.374;2023-07-13T04:01:17;16.00;68.50
81947;DHT22;71447;51.910;8.374;2023-07-13T04:03:44;16.00;68.20
81947;DHT22;71447;51.910;8.374;2023-07-13T04:06:13;16.00;67.80
81947;DHT22;71447;51.910;8.374;2023-07-13T04:08:40;16.00;68.50
81947;DHT22;71447;51.910;8.374;2023-07-13T04:11:07;16.00;67.60
81947;DHT22;71447;51.910;8.374;2023-07-13T04:13:35;16.00;67.70
81947;DHT22;71447;51.910;8.374;2023-07-13T04:16:02;16.00;67.60
81947;DHT22;71447;51.910;8.374;2023-07-13T04:18:28;16.00;67.30
81947;DHT22;71447;51.910;8.374;2023-07-13T04:20:55;16.00;67.50
81947;DHT22;71447;51.910;8.374;2023-07-13T04:23:22;15.90;67.50
81947;DHT22;71447;51.910;8.374;2023-07-13T04:25:49;15.90;67.50
81947;DHT22;71447;51.910;8.374;2023-07-13T04:28:18;15.90;67.40
81947;DHT22;71447;51.910;8.374;2023-07-13T04:30:46;16.00;67.30
81947;DHT22;71447;51.910;8.374;2023-07-13T04:33:12;16.00;67.30
81947;DHT22;71447;51.910;8.374;2023-07-13T04:35:39;16.00;67.30
81947;DHT22;71447;51.910;8.374;2023-07-13T04:38:06;16.00;66.90
81947;DHT22;71447;51.910;8.374;2023-07-13T04:40:32;16.00;66.80
81947;DHT22;71447;51.910;8.374;2023-07-13T04:42:59;16.00;66.50
81947;DHT22;71447;51.910;8.374;2023-07-13T04:45:26;16.00;66.40
81947;DHT22;71447;51.910;8.374;2023-07-13T04:47:54;16.00;66.50
81947;DHT22;71447;51.910;8.374;2023-07-13T04:50:20;16.00;66.20
81947;DHT22;71447;51.910;8.374;2023-07-13T04:52:48;16.00;66.40
81947;DHT22;71447;51.910;8.374;2023-07-13T04:55:16;16.00;66.50
81947;DHT22;71447;51.910;8.374;2023-07-13T04:57:43;16.10;67.30
81947;DHT22;71447;51.910;8.374;2023-07-13T05:00:10;16.10;66.40
81947;DHT22;71447;51.910;8.374;2023-07-13T05:02:37;16.10;66.00
81947;DHT22;71447;51.910;8.374;2023-07-13T05:05:06;16.10;66.10
81947;DHT22;71447;51.910;8.374;2023-07-13T05:07:33;16.20;66.30
81947;DHT22;71447;51.910;8.374;2023-07-13T05:10:00;16.20;66.00
81947;DHT22;71447;51.910;8.374;2023-07-13T05:12:26;16.20;66.00
81947;DHT22;71447;51.910;8.374;2023-07-13T05:14:53;16.30;66.10
81947;DHT22;71447;51.910;8.374;2023-07-13T05:17:20;16.30;66.30
81947;DHT22;71447;51.910;8.374;2023-07-13T05:19:46;16.30;66.00
81947;DHT22;71447;51.910;8.374;2023-07-13T05:22:15;16.30;66.00
81947;DHT22;71447;51.910;8.374;2023-07-13T05:24:41;16.30;66.10
81947;DHT22;71447;51.910;8.374;2023-07-13T05:27:08;16.30;65.80
81947;DHT22;71447;51.910;8.374;2023-07-13T05:29:34;16.30;65.80
81947;DHT22;71447;51.910;8.374;2023-07-13T05:32:02;16.40;66.00
81947;DHT22;71447;51.910;8.374;2023-07-13T05:34:28;16.40;66.00
81947;DHT22;71447;51.910;8.374;2023-07-13T05:36:55;16.50;65.50
81947;DHT22;71447;51.910;8.374;2023-07-13T05:39:23;16.50;65.40
81947;DHT22;71447;51.910;8.374;2023-07-13T05:41:51;16.50;65.50
81947;DHT22;71447;51.910;8.374;2023-07-13T05:44:18;16.50;65.70
81947;DHT22;71447;51.910;8.374;2023-07-13T05:46:45;16.50;65.70
81947;DHT22;71447;51.910;8.374;2023-07-13T05:49:11;16.50;65.80
81947;DHT22;71447;51.910;8.374;2023-07-13T05:51:38;16.60;65.90
81947;DHT22;71447;51.910;8.374;2023-07-13T05:54:05;16.60;65.70
81947;DHT22;71447;51.910;8.374;2023-07-13T05:56:33;16.60;65.50
81947;DHT22;71447;51.910;8.374;2023-07-13T05:59:00;16.70;65.90
81947;DHT22;71447;51.910;8.374;2023-07-13T06:01:27;16.70;65.90
81947;DHT22;71447;51.910;8.374;2023-07-13T06:03:53;16.80;66.00
81947;DHT22;71447;51.910;8.374;2023-07-13T06:06:20;16.80;66.10
81947;DHT22;71447;51.910;8.374;2023-07-13T06:08:46;16.80;66.00
81947;DHT22;71447;51.910;8.374;2023-07-13T06:11:14;16.90;66.10
81947;DHT22;71447;51.910;8.374;2023-07-13T06:13:43;16.90;66.00
81947;DHT22;71447;51.910;8.374;2023-07-13T06:16:10;16.90;66.00
81947;DHT22;71447;51.910;8.374;2023-07-13T06:18:36;16.90;66.00
81947;DHT22;71447;51.910;8.374;2023-07-13T06:21:07;17.00;66.00
81947;DHT22;71447;51.910;8.374;2023-07-13T06:23:34;17.00;65.90
81947;DHT22;71447;51.910;8.374;2023-07-13T06:26:00;17.10;66.30
81947;DHT22;71447;51.910;8.374;2023-07-13T06:28:28;17.10;66.30
81947;DHT22;71447;51.910;8.374;2023-07-13T06:30:56;17.20;66.20
81947;DHT22;71447;51.910;8.374;2023-07-13T06:33:23;17.30;65.80
81947;DHT22;71447;51.910;8.374;2023-07-13T06:35:49;17.20;66.00
81947;DHT22;71447;51.910;8.374;2023-07-13T06:38:16;17.30;66.40
81947;DHT22;71447;51.910;8.374;2023-07-13T06:40:43;17.30;66.40
81947;DHT22;71447;51.910;8.374;2023-07-13T06:43:09;17.40;66.40
81947;DHT22;71447;51.910;8.374;2023-07-13T06:45:40;17.40;66.50
81947;DHT22;71447;51.910;8.374;2023-07-13T06:48:08;17.40;66.40
81947;DHT22;71447;51.910;8.374;2023-07-13T06:50:35;17.40;66.50
81947;DHT22;71447;51.910;8.374;2023-07-13T06:53:02;17.40;66.60
81947;DHT22;71447;51.910;8.374;2023-07-13T06:55:29;17.50;66.60
81947;DHT22;71447;51.910;8.374;2023-07-13T06:57:55;17.50;66.40
81947;DHT22;71447;51.910;8.374;2023-07-13T07:00:22;17.50;66.90
81947;DHT22;71447;51.910;8.374;2023-07-13T07:02:49;17.60;66.70
81947;DHT22;71447;51.910;8.374;2023-07-13T07:05:17;17.70;66.70
81947;DHT22;71447;51.910;8.374;2023-07-13T07:07:47;17.70;66.60
81947;DHT22;71447;51.910;8.374;2023-07-13T07:10:13;17.80;66.80
81947;DHT22;71447;51.910;8.374;2023-07-13T07:12:40;17.80;66.20
81947;DHT22;71447;51.910;8.374;2023-07-13T07:15:07;17.90;66.10
81947;DHT22;71447;51.910;8.374;2023-07-13T07:17:34;17.90;65.80
81947;DHT22;71447;51.910;8.374;2023-07-13T07:20:01;17.90;65.80
81947;DHT22;71447;51.910;8.374;2023-07-13T07:22:30;18.00;65.60
81947;DHT22;71447;51.910;8.374;2023-07-13T07:24:56;18.00;65.40
81947;DHT22;71447;51.910;8.374;2023-07-13T07:27:23;18.10;65.60
81947;DHT22;71447;51.910;8.374;2023-07-13T07:29:50;18.10;65.60
81947;DHT22;71447;51.910;8.374;2023-07-13T07:32:16;18.10;65.60
81947;DHT22;71447;51.910;8.374;2023-07-13T07:34:43;18.20;65.80
81947;DHT22;71447;51.910;8.374;2023-07-13T07:37:10;18.20;65.50
81947;DHT22;71447;51.910;8.374;2023-07-13T07:39:39;18.20;65.30
81947;DHT22;71447;51.910;8.374;2023-07-13T07:42:06;18.30;65.10
81947;DHT22;71447;51.910;8.374;2023-07-13T07:44:32;18.30;64.90
81947;DHT22;71447;51.910;8.374;2023-07-13T07:46:59;18.40;65.00
81947;DHT22;71447;51.910;8.374;2023-07-13T07:49:26;18.50;64.70
81947;DHT22;71447;51.910;8.374;2023-07-13T07:51:53;18.50;64.20
81947;DHT22;71447;51.910;8.374;2023-07-13T07:54:19;18.60;64.20
81947;DHT22;71447;51.910;8.374;2023-07-13T07:56:47;18.60;64.60
81947;DHT22;71447;51.910;8.374;2023-07-13T07:59:14;18.80;64.10
81947;DHT22;71447;51.910;8.374;2023-07-13T08:01:41;18.80;63.90
81947;DHT22;71447;51.910;8.374;2023-07-13T08:04:09;19.00;63.00
81947;DHT22;71447;51.910;8.374;2023-07-13T08:06:35;19.10;62.80
81947;DHT22;71447;51.910;8.374;2023-07-13T08:09:02;19.20;62.10
81947;DHT22;71447;51.910;8.374;2023-07-13T08:11:29;19.20;62.20
81947;DHT22;71447;51.910;8.374;2023-07-13T08:13:57;19.30;61.80
81947;DHT22;71447;51.910;8.374;2023-07-13T08:16:26;19.40;61.50
81947;DHT22;71447;51.910;8.374;2023-07-13T08:18:52;19.40;61.30
81947;DHT22;71447;51.910;8.374;2023-07-13T08:21:20;19.50;61.50
81947;DHT22;71447;51.910;8.374;2023-07-13T08:23:47;19.50;60.90
81947;DHT22;71447;51.910;8.374;2023-07-13T08:26:14;19.60;60.60
81947;DHT22;71447;51.910;8.374;2023-07-13T08:28:40;19.60;60.60
81947;DHT22;71447;51.910;8.374;2023-07-13T08:31:09;19.60;60.10
81947;DHT22;71447;51.910;8.374;2023-07-13T08:33:35;19.60;59.50
81947;DHT22;71447;51.910;8.374;2023-07-13T08:36:03;19.60;59.60
81947;DHT22;71447;51.910;8.374;2023-07-13T08:38:30;19.70;60.00
81947;DHT22;71447;51.910;8.374;2023-07-13T08:40:57;19.70;59.60
81947;DHT22;71447;51.910;8.374;2023-07-13T08:43:25;19.70;59.30
81947;DHT22;71447;51.910;8.374;2023-07-13T08:45:53;19.70;59.60
81947;DHT22;71447;51.910;8.374;2023-07-13T08:48:23;19.70;59.10
81947;DHT22;71447;51.910;8.374;2023-07-13T08:50:56;19.60;59.00
81947;DHT22;71447;51.910;8.374;2023-07-13T08:53:23;19.70;59.10
81947;DHT22;71447;51.910;8.374;2023-07-13T08:55:52;19.70;59.50
81947;DHT22;71447;51.910;8.374;2023-07-13T08:58:23;19.70;59.40
81947;DHT22;71447;51.910;8.374;2023-07-13T09:00:55;19.80;58.60
81947;DHT22;71447;51.910;8.374;2023-07-13T09:03:25;20.00;58.70
81947;DHT22;71447;51.910;8.374;2023-07-13T09:05:54;20.10;58.60
81947;DHT22;71447;51.910;8.374;2023-07-13T09:08:30;20.20;57.80
81947;DHT22;71447;51.910;8.374;2023-07-13T09:11:00;20.30;56.00
81947;DHT22;71447;51.910;8.374;2023-07-13T09:13:28;20.40;56.20
81947;DHT22;71447;51.910;8.374;2023-07-13T09:15:59;20.40;56.10
81947;DHT22;71447;51.910;8.374;2023-07-13T09:18:32;20.40;56.50
81947;DHT22;71447;51.910;8.374;2023-07-13T09:21:02;20.50;55.90
81947;DHT22;71447;51.910;8.374;2023-07-13T09:23:30;20.50;54.80
81947;DHT22;71447;51.910;8.374;2023-07-13T09:26:00;20.50;54.40
81947;DHT22;71447;51.910;8.374;2023-07-13T09:28:29;20.50;54.30
81947;DHT22;71447;51.910;8.374;2023-07-13T09:31:01;20.50;54.90
81947;DHT22;71447;51.910;8.374;2023-07-13T09:33:30;20.50;55.00
81947;DHT22;71447;51.910;8.374;2023-07-13T09:35:58;20.50;55.40
81947;DHT22;71447;51.910;8.374;2023-07-13T09:38:25;20.50;55.30
81947;DHT22;71447;51.910;8.374;2023-07-13T09:40:58;20.50;55.20
81947;DHT22;71447;51.910;8.374;2023-07-13T09:43:26;20.60;55.50
81947;DHT22;71447;51.910;8.374;2023-07-13T09:45:54;20.60;55.50
81947;DHT22;71447;51.910;8.374;2023-07-13T09:48:21;20.70;54.80
81947;DHT22;71447;51.910;8.374;2023-07-13T09:50:49;20.80;54.70
81947;DHT22;71447;51.910;8.374;2023-07-13T09:53:20;20.90;54.20
81947;DHT22;71447;51.910;8.374;2023-07-13T09:55:48;21.00;53.40
81947;DHT22;71447;51.910;8.374;2023-07-13T09:58:16;21.10;53.20
81947;DHT22;71447;51.910;8.374;2023-07-13T10:00:54;21.30;52.70
81947;DHT22;71447;51.910;8.374;2023-07-13T10:03:23;21.40;53.10
81947;DHT22;71447;51.910;8.374;2023-07-13T10:05:51;21.50;52.50
81947;DHT22;71447;51.910;8.374;2023-07-13T10:08:20;21.60;51.90
81947;DHT22;71447;51.910;8.374;2023-07-13T10:10:51;21.70;51.80
81947;DHT22;71447;51.910;8.374;2023-07-13T10:13:29;21.90;50.70
81947;DHT22;71447;51.910;8.374;2023-07-13T10:15:57;22.00;50.50
81947;DHT22;71447;51.910;8.374;2023-07-13T10:18:25;22.00;51.00
81947;DHT22;71447;51.910;8.374;2023-07-13T10:20:55;22.20;50.70
81947;DHT22;71447;51.910;8.374;2023-07-13T10:23:27;22.20;50.00
81947;DHT22;71447;51.910;8.374;2023-07-13T10:25:56;22.20;49.40
81947;DHT22;71447;51.910;8.374;2023-07-13T10:28:25;22.20;49.00
81947;DHT22;71447;51.910;8.374;2023-07-13T10:30:53;22.30;49.30
81947;DHT22;71447;51.910;8.374;2023-07-13T10:33:22;22.30;49.50
81947;DHT22;71447;51.910;8.374;2023-07-13T10:35:49;22.40;48.80
81947;DHT22;71447;51.910;8.374;2023-07-13T10:38:19;22.50;48.10
81947;DHT22;71447;51.910;8.374;2023-07-13T10:40:51;22.60;48.50
81947;DHT22;71447;51.910;8.374;2023-07-13T10:43:22;22.70;48.10
81947;DHT22;71447;51.910;8.374;2023-07-13T10:45:50;22.70;48.00
81947;DHT22;71447;51.910;8.374;2023-07-13T10:48:17;22.70;48.10
81947;DHT22;71447;51.910;8.374;2023-07-13T10:50:45;22.80;47.90
81947;DHT22;71447;51.910;8.374;2023-07-13T10:53:20;22.90;47.20
81947;DHT22;71447;51.910;8.374;2023-07-13T10:55:54;22.90;47.20
81947;DHT22;71447;51.910;8.374;2023-07-13T10:58:23;23.00;46.60
81947;DHT22;71447;51.910;8.374;2023-07-13T11:00:50;23.00;46.70
81947;DHT22;71447;51.910;8.374;2023-07-13T11:03:20;23.00;46.90
81947;DHT22;71447;51.910;8.374;2023-07-13T11:05:49;23.00;47.50
81947;DHT22;71447;51.910;8.374;2023-07-13T11:08:20;22.90;46.90
81947;DHT22;71447;51.910;8.374;2023-07-13T11:10:52;22.80;47.10
81947;DHT22;71447;51.910;8.374;2023-07-13T11:13:36;22.70;48.10
81947;DHT22;71447;51.910;8.374;2023-07-13T11:16:11;22.60;48.70
81947;DHT22;71447;51.910;8.374;2023-07-13T11:18:38;22.50;48.50
81947;DHT22;71447;51.910;8.374;2023-07-13T11:21:14;22.60;48.60
81947;DHT22;71447;51.910;8.374;2023-07-13T11:23:43;22.60;47.80
81947;DHT22;71447;51.910;8.374;2023-07-13T11:28:52;22.90;48.50
81947;DHT22;71447;51.910;8.374;2023-07-13T11:31:19;23.00;48.60
81947;DHT22;71447;51.910;8.374;2023-07-13T11:33:52;23.10;47.90
81947;DHT22;71447;51.910;8.374;2023-07-13T11:36:20;23.20;47.80
81947;DHT22;71447;51.910;8.374;2023-07-13T11:38:51;23.20;47.30
81947;DHT22;71447;51.910;8.374;2023-07-13T11:41:22;23.30;46.70
81947;DHT22;71447;51.910;8.374;2023-07-13T11:43:53;23.10;46.80
81947;DHT22;71447;51.910;8.374;2023-07-13T11:46:20;23.10;47.50
81947;DHT22;71447;51.910;8.374;2023-07-13T11:48:48;23.10;47.00
81947;DHT22;71447;51.910;8.374;2023-07-13T11:51:19;23.20;46.50
81947;DHT22;71447;51.910;8.374;2023-07-13T11:53:48;23.40;45.60
81947;DHT22;71447;51.910;8.374;2023-07-13T11:56:17;23.40;45.10
81947;DHT22;71447;51.910;8.374;2023-07-13T11:58:44;23.50;45.30
81947;DHT22;71447;51.910;8.374;2023-07-13T12:01:15;23.50;44.90
81947;DHT22;71447;51.910;8.374;2023-07-13T12:03:43;23.60;44.40
81947;DHT22;71447;51.910;8.374;2023-07-13T12:06:19;23.60;44.20
81947;DHT22;71447;51.910;8.374;2023-07-13T12:08:48;23.70;43.20
81947;DHT22;71447;51.910;8.374;2023-07-13T12:11:15;23.70;43.40
81947;DHT22;71447;51.910;8.374;2023-07-13T12:13:44;23.60;43.50
81947;DHT22;71447;51.910;8.374;2023-07-13T12:16:12;23.50;44.30
81947;DHT22;71447;51.910;8.374;2023-07-13T12:18:41;23.60;44.60
81947;DHT22;71447;51.910;8.374;2023-07-13T12:21:12;23.80;45.00
81947;DHT22;71447;51.910;8.374;2023-07-13T12:23:39;24.10;44.30
81947;DHT22;71447;51.910;8.374;2023-07-13T12:26:09;24.40;43.20
81947;DHT22;71447;51.910;8.374;2023-07-13T12:28:37;24.40;42.90
81947;DHT22;71447;51.910;8.374;2023-07-13T12:31:06;24.30;42.90
81947;DHT22;71447;51.910;8.374;2023-07-13T12:33:33;24.30;43.20
81947;DHT22;71447;51.910;8.374;2023-07-13T12:36:00;24.30;42.80
81947;DHT22;71447;51.910;8.374;2023-07-13T12:38:28;24.30;42.80
81947;DHT22;71447;51.910;8.374;2023-07-13T12:40:56;24.40;42.80
81947;DHT22;71447;51.910;8.374;2023-07-13T12:43:23;24.40;41.20
81947;DHT22;71447;51.910;8.374;2023-07-13T12:45:57;24.20;41.60
81947;DHT22;71447;51.910;8.374;2023-07-13T12:48:26;24.20;41.90
81947;DHT22;71447;51.910;8.374;2023-07-13T12:50:54;24.20;41.90
81947;DHT22;71447;51.910;8.374;2023-07-13T12:53:22;24.50;40.00
81947;DHT22;71447;51.910;8.374;2023-07-13T12:55:50;24.80;39.60
81947;DHT22;71447;51.910;8.374;2023-07-13T12:58:21;25.10;39.20
81947;DHT22;71447;51.910;8.374;2023-07-13T13:00:48;25.40;38.30
81947;DHT22;71447;51.910;8.374;2023-07-13T13:03:20;25.60;37.60
81947;DHT22;71447;51.910;8.374;2023-07-13T13:05:49;26.00;37.40
81947;DHT22;71447;51.910;8.374;2023-07-13T13:08:22;26.40;36.00
81947;DHT22;71447;51.910;8.374;2023-07-13T13:10:49;26.80;35.80
81947;DHT22;71447;51.910;8.374;2023-07-13T13:13:16;27.50;35.00
81947;DHT22;71447;51.910;8.374;2023-07-13T13:15:42;28.10;33.10
81947;DHT22;71447;51.910;8.374;2023-07-13T13:18:19;28.30;32.10
81947;DHT22;71447;51.910;8.374;2023-07-13T13:20:47;28.30;32.60
81947;DHT22;71447;51.910;8.374;2023-07-13T13:23:16;28.50;32.60
81947;DHT22;71447;51.910;8.374;2023-07-13T13:25:43;28.40;32.50
81947;DHT22;71447;51.910;8.374;2023-07-13T13:28:13;28.10;33.40
81947;DHT22;71447;51.910;8.374;2023-07-13T13:30:40;28.00;33.60
81947;DHT22;71447;51.910;8.374;2023-07-13T13:33:08;27.70;33.70
81947;DHT22;71447;51.910;8.374;2023-07-13T13:35:35;27.60;33.90
81947;DHT22;71447;51.910;8.374;2023-07-13T13:38:02;27.30;33.90
81947;DHT22;71447;51.910;8.374;2023-07-13T13:40:30;27.10;35.30
81947;DHT22;71447;51.910;8.374;2023-07-13T13:42:57;26.90;36.20
81947;DHT22;71447;51.910;8.374;2023-07-13T13:45:23;26.50;37.10
81947;DHT22;71447;51.910;8.374;2023-07-13T13:47:50;26.10;37.40
81947;DHT22;71447;51.910;8.374;2023-07-13T13:50:17;25.80;37.80
81947;DHT22;71447;51.910;8.374;2023-07-13T13:52:45;25.60;40.60
81947;DHT22;71447;51.910;8.374;2023-07-13T13:55:12;25.40;41.70
81947;DHT22;71447;51.910;8.374;2023-07-13T13:57:40;25.40;42.10
81947;DHT22;71447;51.910;8.374;2023-07-13T14:00:08;25.40;42.30
81947;DHT22;71447;51.910;8.374;2023-07-13T14:02:37;25.40;42.70
81947;DHT22;71447;51.910;8.374;2023-07-13T14:05:05;25.30;43.50
81947;DHT22;71447;51.910;8.374;2023-07-13T14:07:33;25.10;43.50
81947;DHT22;71447;51.910;8.374;2023-07-13T14:10:00;25.00;44.10
81947;DHT22;71447;51.910;8.374;2023-07-13T14:12:26;24.70;45.60
81947;DHT22;71447;51.910;8.374;2023-07-13T14:14:55;24.20;53.00
81947;DHT22;71447;51.910;8.374;2023-07-13T14:17:24;23.50;57.40
81947;DHT22;71447;51.910;8.374;2023-07-13T14:19:52;22.90;59.60
81947;DHT22;71447;51.910;8.374;2023-07-13T14:22:22;22.40;62.80
81947;DHT22;71447;51.910;8.374;2023-07-13T14:24:49;22.00;62.90
81947;DHT22;71447;51.910;8.374;2023-07-13T14:27:16;21.70;63.80
81947;DHT22;71447;51.910;8.374;2023-07-13T14:29:42;21.50;65.00
81947;DHT22;71447;51.910;8.374;2023-07-13T14:32:11;21.30;66.00
81947;DHT22;71447;51.910;8.374;2023-07-13T14:34:38;21.30;67.60
81947;DHT22;71447;51.910;8.374;2023-07-13T14:37:05;21.20;67.00
81947;DHT22;71447;51.910;8.374;2023-07-13T14:39:31;21.10;66.50
81947;DHT22;71447;51.910;8.374;2023-07-13T14:41:58;21.10;66.90
81947;DHT22;71447;51.910;8.374;2023-07-13T14:44:25;21.00;65.60
81947;DHT22;71447;51.910;8.374;2023-07-13T14:46:54;20.90;65.80
81947;DHT22;71447;51.910;8.374;2023-07-13T14:49:24;20.80;64.30
81947;DHT22;71447;51.910;8.374;2023-07-13T14:51:51;20.70;64.70
81947;DHT22;71447;51.910;8.374;2023-07-13T14:54:18;20.50;63.80
81947;DHT22;71447;51.910;8.374;2023-07-13T14:56:44;20.20;63.20
81947;DHT22;71447;51.910;8.374;2023-07-13T14:59:11;20.00;64.10
81947;DHT22;71447;51.910;8.374;2023-07-13T15:01:38;19.70;64.70
81947;DHT22;71447;51.910;8.374;2023-07-13T15:04:05;19.40;65.70
81947;DHT22;71447;51.910;8.374;2023-07-13T15:06:35;19.10;67.40
81947;DHT22;71447;51.910;8.374;2023-07-13T15:09:01;18.80;69.20
81947;DHT22;71447;51.910;8.374;2023-07-13T15:11:29;18.60;71.00
81947;DHT22;71447;51.910;8.374;2023-07-13T15:13:55;18.40;72.50
81947;DHT22;71447;51.910;8.374;2023-07-13T15:16:23;18.30;74.10
81947;DHT22;71447;51.910;8.374;2023-07-13T15:18:50;18.00;74.70
81947;DHT22;71447;51.910;8.374;2023-07-13T15:21:18;17.80;75.80
81947;DHT22;71447;51.910;8.374;2023-07-13T15:23:47;17.70;77.50
81947;DHT22;71447;51.910;8.374;2023-07-13T15:26:14;17.60;78.30
81947;DHT22;71447;51.910;8.374;2023-07-13T15:28:41;17.50;77.90
81947;DHT22;71447;51.910;8.374;2023-07-13T15:31:15;17.40;78.50
81947;DHT22;71447;51.910;8.374;2023-07-13T15:33:42;17.40;79.40
81947;DHT22;71447;51.910;8.374;2023-07-13T15:36:09;17.30;79.60